This is the latest recevied weather packets stored in our database for station/object OE-3002. If no packets are shown the sender has not sent any weather packets the latest 10 day(s).
| Time | Temp. | Humidity | Pressure | Rain* | Wind** | Luminosity | Snow |
|---|---|---|---|---|---|---|---|
| 1787910063 | 30° C | 52% | 1008.4 hPa | - | - | - | - |
| 1787908262 | 28.89° C | 57% | 1009.6 hPa | - | - | - | - |
| 1787906462 | 27.78° C | 58% | 1009.8 hPa | - | - | - | - |
| 1787904663 | 26.11° C | 66% | 1010 hPa | - | - | - | - |
| 1787902862 | 23.89° C | 77% | 1010.4 hPa | - | - | - | - |
| 1787901062 | 22.22° C | 86% | 1010.7 hPa | - | - | - | - |
| 1787899263 | 20.56° C | 92% | 1012 hPa | - | - | - | - |
| 1787897462 | 18.89° C | 96% | 1012.3 hPa | - | - | - | - |
| 1787895662 | 17.78° C | 99% | 1012.5 hPa | - | - | - | - |
| 1787893863 | 17.22° C | 100% | 1011.5 hPa | - | - | - | - |
| 1787892062 | 17.22° C | 100% | 1011.6 hPa | - | - | - | - |
| 1787890262 | 17.22° C | 100% | 1012.6 hPa | - | - | - | - |
| 1787886662 | 17.78° C | 100% | 1012.5 hPa | - | - | - | - |
| 1787884863 | 18.33° C | 100% | 1012.4 hPa | - | - | - | - |
| 1787883063 | 17.78° C | 100% | 1012.5 hPa | - | - | - | - |
| 1787881263 | 17.78° C | 100% | 1012.5 hPa | - | - | - | - |
| 1787879462 | 18.33° C | 100% | 1012.4 hPa | - | - | - | - |
| 1787877662 | 18.33° C | 100% | 1012.4 hPa | - | - | - | - |
| 1787875862 | 18.33° C | 100% | 1012.4 hPa | - | - | - | - |
| 1787874062 | 18.89° C | 100% | 1012.3 hPa | - | - | - | - |
| 1787870463 | 19.44° C | 100% | 1013.3 hPa | - | - | - | - |
| 1787868663 | 19.44° C | 99% | 1013.3 hPa | - | - | - | - |
| 1787866863 | 20° C | 97% | 1013.2 hPa | - | - | - | - |
| 1787865064 | 21.11° C | 93% | 1013 hPa | - | - | - | - |
| 1787863263 | 21.11° C | 93% | 1013 hPa | - | - | - | - |
* Rain since midnight (hover to see other rain measurements)
** Current wind speed in m/s (hover to see current wind gust speed)